sensor_id;sensor_type;location;lat;lon;timestamp;P1;durP1;ratioP1;P2;durP2;ratioP2
34657;SDS011;20865;43.312;27.152;2023-11-21T00:02:27;36.83;;;20.92;;
34657;SDS011;20865;43.312;27.152;2023-11-21T00:04:55;38.55;;;20.35;;
34657;SDS011;20865;43.312;27.152;2023-11-21T00:07:22;36.90;;;21.97;;
34657;SDS011;20865;43.312;27.152;2023-11-21T00:09:50;37.17;;;18.85;;
34657;SDS011;20865;43.312;27.152;2023-11-21T00:12:18;36.68;;;19.85;;
34657;SDS011;20865;43.312;27.152;2023-11-21T00:14:46;26.30;;;13.48;;
34657;SDS011;20865;43.312;27.152;2023-11-21T00:17:14;25.20;;;13.03;;
34657;SDS011;20865;43.312;27.152;2023-11-21T00:19:41;17.77;;;8.68;;
34657;SDS011;20865;43.312;27.152;2023-11-21T00:22:09;18.52;;;8.23;;
34657;SDS011;20865;43.312;27.152;2023-11-21T00:24:36;19.12;;;8.60;;
34657;SDS011;20865;43.312;27.152;2023-11-21T00:27:04;18.25;;;8.55;;
34657;SDS011;20865;43.312;27.152;2023-11-21T00:29:31;22.13;;;9.03;;
34657;SDS011;20865;43.312;27.152;2023-11-21T00:31:59;18.40;;;9.65;;
34657;SDS011;20865;43.312;27.152;2023-11-21T00:34:27;22.32;;;11.38;;
34657;SDS011;20865;43.312;27.152;2023-11-21T00:36:55;18.57;;;9.73;;
34657;SDS011;20865;43.312;27.152;2023-11-21T00:39:22;19.55;;;9.05;;
34657;SDS011;20865;43.312;27.152;2023-11-21T00:41:51;20.12;;;8.98;;
34657;SDS011;20865;43.312;27.152;2023-11-21T00:44:19;18.67;;;9.33;;
34657;SDS011;20865;43.312;27.152;2023-11-21T00:46:46;18.98;;;8.23;;
34657;SDS011;20865;43.312;27.152;2023-11-21T00:49:14;19.12;;;7.60;;
34657;SDS011;20865;43.312;27.152;2023-11-21T00:51:42;18.42;;;7.80;;
34657;SDS011;20865;43.312;27.152;2023-11-21T00:54:10;19.62;;;8.10;;
34657;SDS011;20865;43.312;27.152;2023-11-21T00:56:38;12.75;;;6.55;;
34657;SDS011;20865;43.312;27.152;2023-11-21T00:59:06;17.60;;;7.20;;
34657;SDS011;20865;43.312;27.152;2023-11-21T01:01:34;13.80;;;7.33;;
34657;SDS011;20865;43.312;27.152;2023-11-21T01:04:03;15.98;;;7.42;;
34657;SDS011;20865;43.312;27.152;2023-11-21T01:06:32;23.42;;;7.60;;
34657;SDS011;20865;43.312;27.152;2023-11-21T01:09:00;13.30;;;7.22;;
34657;SDS011;20865;43.312;27.152;2023-11-21T01:11:29;17.57;;;7.28;;
34657;SDS011;20865;43.312;27.152;2023-11-21T01:13:57;15.50;;;7.30;;
34657;SDS011;20865;43.312;27.152;2023-11-21T01:16:25;14.23;;;7.70;;
34657;SDS011;20865;43.312;27.152;2023-11-21T01:18:53;17.30;;;7.35;;
34657;SDS011;20865;43.312;27.152;2023-11-21T01:21:21;18.95;;;8.33;;
34657;SDS011;20865;43.312;27.152;2023-11-21T01:23:48;16.10;;;7.83;;
34657;SDS011;20865;43.312;27.152;2023-11-21T01:26:16;17.77;;;7.60;;
34657;SDS011;20865;43.312;27.152;2023-11-21T01:28:43;15.18;;;7.35;;
34657;SDS011;20865;43.312;27.152;2023-11-21T01:31:11;18.87;;;7.78;;
34657;SDS011;20865;43.312;27.152;2023-11-21T01:33:39;18.35;;;7.53;;
34657;SDS011;20865;43.312;27.152;2023-11-21T01:36:07;16.75;;;7.25;;
34657;SDS011;20865;43.312;27.152;2023-11-21T01:38:35;15.15;;;7.75;;
34657;SDS011;20865;43.312;27.152;2023-11-21T01:41:02;19.52;;;8.08;;
34657;SDS011;20865;43.312;27.152;2023-11-21T01:43:31;16.42;;;8.80;;
34657;SDS011;20865;43.312;27.152;2023-11-21T01:45:59;13.88;;;6.75;;
34657;SDS011;20865;43.312;27.152;2023-11-21T01:48:28;17.57;;;7.17;;
34657;SDS011;20865;43.312;27.152;2023-11-21T01:50:56;17.85;;;7.90;;
34657;SDS011;20865;43.312;27.152;2023-11-21T01:53:25;19.48;;;8.45;;
34657;SDS011;20865;43.312;27.152;2023-11-21T01:55:54;14.95;;;8.03;;
34657;SDS011;20865;43.312;27.152;2023-11-21T01:58:23;17.52;;;7.87;;
34657;SDS011;20865;43.312;27.152;2023-11-21T02:00:51;17.02;;;7.92;;
34657;SDS011;20865;43.312;27.152;2023-11-21T02:03:20;16.20;;;7.45;;
34657;SDS011;20865;43.312;27.152;2023-11-21T02:05:47;17.45;;;7.60;;
34657;SDS011;20865;43.312;27.152;2023-11-21T02:08:15;18.23;;;8.05;;
34657;SDS011;20865;43.312;27.152;2023-11-21T02:10:43;14.18;;;7.53;;
34657;SDS011;20865;43.312;27.152;2023-11-21T02:13:11;17.00;;;7.95;;
34657;SDS011;20865;43.312;27.152;2023-11-21T02:15:38;18.02;;;8.53;;
34657;SDS011;20865;43.312;27.152;2023-11-21T02:18:06;14.90;;;8.05;;
34657;SDS011;20865;43.312;27.152;2023-11-21T02:20:36;18.48;;;8.65;;
34657;SDS011;20865;43.312;27.152;2023-11-21T02:23:04;14.18;;;7.78;;
34657;SDS011;20865;43.312;27.152;2023-11-21T02:25:33;16.32;;;7.92;;
34657;SDS011;20865;43.312;27.152;2023-11-21T02:28:02;14.80;;;7.92;;
34657;SDS011;20865;43.312;27.152;2023-11-21T02:30:32;20.52;;;7.90;;
34657;SDS011;20865;43.312;27.152;2023-11-21T02:33:00;18.23;;;8.75;;
34657;SDS011;20865;43.312;27.152;2023-11-21T02:35:28;15.28;;;7.47;;
34657;SDS011;20865;43.312;27.152;2023-11-21T02:37:56;14.40;;;7.78;;
34657;SDS011;20865;43.312;27.152;2023-11-21T02:40:24;15.48;;;8.03;;
34657;SDS011;20865;43.312;27.152;2023-11-21T02:42:52;21.93;;;8.25;;
34657;SDS011;20865;43.312;27.152;2023-11-21T02:45:20;17.45;;;7.30;;
34657;SDS011;20865;43.312;27.152;2023-11-21T02:47:49;17.48;;;7.47;;
34657;SDS011;20865;43.312;27.152;2023-11-21T02:50:18;16.07;;;7.53;;
34657;SDS011;20865;43.312;27.152;2023-11-21T02:52:48;16.07;;;8.05;;
34657;SDS011;20865;43.312;27.152;2023-11-21T02:55:16;12.93;;;7.03;;
34657;SDS011;20865;43.312;27.152;2023-11-21T02:57:44;17.42;;;8.08;;
34657;SDS011;20865;43.312;27.152;2023-11-21T03:00:12;11.05;;;6.00;;
34657;SDS011;20865;43.312;27.152;2023-11-21T03:02:40;15.20;;;7.72;;
34657;SDS011;20865;43.312;27.152;2023-11-21T03:05:09;14.03;;;6.78;;
34657;SDS011;20865;43.312;27.152;2023-11-21T03:07:38;14.85;;;7.67;;
34657;SDS011;20865;43.312;27.152;2023-11-21T03:10:06;16.12;;;7.30;;
34657;SDS011;20865;43.312;27.152;2023-11-21T03:12:37;20.17;;;7.20;;
34657;SDS011;20865;43.312;27.152;2023-11-21T03:15:05;13.13;;;6.97;;
34657;SDS011;20865;43.312;27.152;2023-11-21T03:17:34;14.68;;;7.33;;
34657;SDS011;20865;43.312;27.152;2023-11-21T03:20:02;16.75;;;7.05;;
34657;SDS011;20865;43.312;27.152;2023-11-21T03:22:30;15.53;;;7.35;;
34657;SDS011;20865;43.312;27.152;2023-11-21T03:24:58;13.58;;;6.87;;
34657;SDS011;20865;43.312;27.152;2023-11-21T03:27:25;16.57;;;7.10;;
34657;SDS011;20865;43.312;27.152;2023-11-21T03:29:53;10.55;;;6.12;;
34657;SDS011;20865;43.312;27.152;2023-11-21T03:32:21;12.95;;;6.72;;
34657;SDS011;20865;43.312;27.152;2023-11-21T03:34:57;15.18;;;7.83;;
34657;SDS011;20865;43.312;27.152;2023-11-21T03:37:24;18.23;;;8.53;;
34657;SDS011;20865;43.312;27.152;2023-11-21T03:39:54;14.90;;;7.80;;
34657;SDS011;20865;43.312;27.152;2023-11-21T03:42:23;15.25;;;7.50;;
34657;SDS011;20865;43.312;27.152;2023-11-21T03:44:53;17.90;;;7.90;;
34657;SDS011;20865;43.312;27.152;2023-11-21T03:47:21;22.40;;;9.63;;
34657;SDS011;20865;43.312;27.152;2023-11-21T03:49:49;17.32;;;8.30;;
34657;SDS011;20865;43.312;27.152;2023-11-21T03:52:17;19.35;;;7.75;;
34657;SDS011;20865;43.312;27.152;2023-11-21T03:54:44;18.80;;;7.50;;
34657;SDS011;20865;43.312;27.152;2023-11-21T03:57:13;15.68;;;7.95;;
34657;SDS011;20865;43.312;27.152;2023-11-21T03:59:41;15.78;;;6.72;;
34657;SDS011;20865;43.312;27.152;2023-11-21T04:02:09;15.63;;;7.42;;
34657;SDS011;20865;43.312;27.152;2023-11-21T04:04:37;15.65;;;7.33;;
34657;SDS011;20865;43.312;27.152;2023-11-21T04:07:05;13.20;;;6.92;;
34657;SDS011;20865;43.312;27.152;2023-11-21T04:09:32;13.80;;;7.83;;
34657;SDS011;20865;43.312;27.152;2023-11-21T04:12:02;15.45;;;7.35;;
34657;SDS011;20865;43.312;27.152;2023-11-21T04:14:29;14.38;;;7.05;;
34657;SDS011;20865;43.312;27.152;2023-11-21T04:16:57;18.17;;;7.03;;
34657;SDS011;20865;43.312;27.152;2023-11-21T04:19:25;13.68;;;6.50;;
34657;SDS011;20865;43.312;27.152;2023-11-21T04:21:52;20.70;;;7.03;;
34657;SDS011;20865;43.312;27.152;2023-11-21T04:24:20;11.50;;;6.30;;
34657;SDS011;20865;43.312;27.152;2023-11-21T04:26:47;12.93;;;5.97;;
34657;SDS011;20865;43.312;27.152;2023-11-21T04:29:17;15.98;;;6.75;;
34657;SDS011;20865;43.312;27.152;2023-11-21T04:31:44;16.45;;;6.12;;
34657;SDS011;20865;43.312;27.152;2023-11-21T04:34:14;13.18;;;6.58;;
34657;SDS011;20865;43.312;27.152;2023-11-21T04:36:42;17.23;;;7.97;;
34657;SDS011;20865;43.312;27.152;2023-11-21T04:39:10;17.70;;;8.03;;
34657;SDS011;20865;43.312;27.152;2023-11-21T04:41:37;16.95;;;8.23;;
34657;SDS011;20865;43.312;27.152;2023-11-21T04:44:05;16.62;;;9.00;;
34657;SDS011;20865;43.312;27.152;2023-11-21T04:46:33;18.52;;;9.30;;
34657;SDS011;20865;43.312;27.152;2023-11-21T04:49:00;21.20;;;9.10;;
34657;SDS011;20865;43.312;27.152;2023-11-21T04:51:28;18.40;;;8.33;;
34657;SDS011;20865;43.312;27.152;2023-11-21T04:53:57;25.45;;;8.80;;
34657;SDS011;20865;43.312;27.152;2023-11-21T04:56:25;17.05;;;8.18;;
34657;SDS011;20865;43.312;27.152;2023-11-21T04:58:54;15.90;;;7.42;;
34657;SDS011;20865;43.312;27.152;2023-11-21T05:01:22;14.23;;;7.47;;
34657;SDS011;20865;43.312;27.152;2023-11-21T05:03:49;15.32;;;6.53;;
34657;SDS011;20865;43.312;27.152;2023-11-21T05:06:18;20.70;;;7.25;;
34657;SDS011;20865;43.312;27.152;2023-11-21T05:08:45;15.75;;;6.40;;
34657;SDS011;20865;43.312;27.152;2023-11-21T05:11:22;19.35;;;6.78;;
34657;SDS011;20865;43.312;27.152;2023-11-21T05:13:52;12.85;;;6.75;;
34657;SDS011;20865;43.312;27.152;2023-11-21T05:16:22;15.35;;;7.25;;
34657;SDS011;20865;43.312;27.152;2023-11-21T05:18:51;18.12;;;7.58;;
34657;SDS011;20865;43.312;27.152;2023-11-21T05:21:18;14.10;;;6.72;;
34657;SDS011;20865;43.312;27.152;2023-11-21T05:23:46;17.82;;;6.37;;
34657;SDS011;20865;43.312;27.152;2023-11-21T05:26:14;12.43;;;5.40;;
34657;SDS011;20865;43.312;27.152;2023-11-21T05:28:41;14.80;;;6.70;;
34657;SDS011;20865;43.312;27.152;2023-11-21T05:31:09;13.40;;;5.55;;
34657;SDS011;20865;43.312;27.152;2023-11-21T05:33:37;12.28;;;5.95;;
34657;SDS011;20865;43.312;27.152;2023-11-21T05:36:04;13.88;;;5.37;;
34657;SDS011;20865;43.312;27.152;2023-11-21T05:38:34;12.30;;;5.95;;
34657;SDS011;20865;43.312;27.152;2023-11-21T05:41:02;14.15;;;6.67;;
34657;SDS011;20865;43.312;27.152;2023-11-21T05:43:30;18.65;;;6.42;;
34657;SDS011;20865;43.312;27.152;2023-11-21T05:45:59;16.77;;;8.00;;
34657;SDS011;20865;43.312;27.152;2023-11-21T05:48:27;19.57;;;7.60;;
34657;SDS011;20865;43.312;27.152;2023-11-21T05:50:54;18.67;;;8.25;;
34657;SDS011;20865;43.312;27.152;2023-11-21T05:53:22;16.30;;;7.87;;
34657;SDS011;20865;43.312;27.152;2023-11-21T05:55:50;17.15;;;7.95;;
34657;SDS011;20865;43.312;27.152;2023-11-21T05:58:17;39.38;;;8.33;;
34657;SDS011;20865;43.312;27.152;2023-11-21T06:00:46;25.17;;;9.30;;
34657;SDS011;20865;43.312;27.152;2023-11-21T06:03:14;21.02;;;7.45;;
34657;SDS011;20865;43.312;27.152;2023-11-21T06:05:42;17.30;;;7.33;;
34657;SDS011;20865;43.312;27.152;2023-11-21T06:08:29;13.48;;;7.03;;
34657;SDS011;20865;43.312;27.152;2023-11-21T06:10:57;14.13;;;7.10;;
34657;SDS011;20865;43.312;27.152;2023-11-21T06:13:24;12.40;;;7.17;;
34657;SDS011;20865;43.312;27.152;2023-11-21T06:15:53;10.72;;;6.20;;
34657;SDS011;20865;43.312;27.152;2023-11-21T06:18:21;19.95;;;6.67;;
34657;SDS011;20865;43.312;27.152;2023-11-21T06:20:49;15.23;;;7.78;;
34657;SDS011;20865;43.312;27.152;2023-11-21T06:23:18;13.15;;;7.55;;
34657;SDS011;20865;43.312;27.152;2023-11-21T06:25:46;10.38;;;6.05;;
34657;SDS011;20865;43.312;27.152;2023-11-21T06:28:14;14.25;;;6.97;;
34657;SDS011;20865;43.312;27.152;2023-11-21T06:30:43;10.70;;;5.37;;
34657;SDS011;20865;43.312;27.152;2023-11-21T06:33:11;15.10;;;6.50;;
34657;SDS011;20865;43.312;27.152;2023-11-21T06:35:38;11.35;;;6.00;;
34657;SDS011;20865;43.312;27.152;2023-11-21T06:38:06;15.05;;;6.08;;
34657;SDS011;20865;43.312;27.152;2023-11-21T06:40:34;11.68;;;5.83;;
34657;SDS011;20865;43.312;27.152;2023-11-21T06:43:02;14.87;;;8.33;;
34657;SDS011;20865;43.312;27.152;2023-11-21T06:45:31;21.37;;;10.88;;
34657;SDS011;20865;43.312;27.152;2023-11-21T06:48:00;23.20;;;10.30;;
34657;SDS011;20865;43.312;27.152;2023-11-21T06:50:27;22.85;;;10.48;;
34657;SDS011;20865;43.312;27.152;2023-11-21T06:52:55;17.32;;;9.18;;
34657;SDS011;20865;43.312;27.152;2023-11-21T06:55:22;22.50;;;8.68;;
34657;SDS011;20865;43.312;27.152;2023-11-21T06:57:50;23.10;;;9.20;;
34657;SDS011;20865;43.312;27.152;2023-11-21T07:00:18;21.68;;;9.10;;
34657;SDS011;20865;43.312;27.152;2023-11-21T07:02:46;16.52;;;8.53;;
34657;SDS011;20865;43.312;27.152;2023-11-21T07:05:14;17.52;;;9.18;;
34657;SDS011;20865;43.312;27.152;2023-11-21T07:07:43;15.80;;;8.98;;
34657;SDS011;20865;43.312;27.152;2023-11-21T07:10:11;26.15;;;11.33;;
34657;SDS011;20865;43.312;27.152;2023-11-21T07:12:38;19.55;;;10.95;;
34657;SDS011;20865;43.312;27.152;2023-11-21T07:15:07;15.68;;;9.48;;
34657;SDS011;20865;43.312;27.152;2023-11-21T07:17:35;15.03;;;8.35;;
34657;SDS011;20865;43.312;27.152;2023-11-21T07:20:03;18.15;;;9.78;;
34657;SDS011;20865;43.312;27.152;2023-11-21T07:22:32;24.18;;;7.33;;
34657;SDS011;20865;43.312;27.152;2023-11-21T07:24:59;11.60;;;6.80;;
34657;SDS011;20865;43.312;27.152;2023-11-21T07:27:27;25.95;;;11.12;;
34657;SDS011;20865;43.312;27.152;2023-11-21T07:29:55;19.45;;;8.98;;
34657;SDS011;20865;43.312;27.152;2023-11-21T07:32:23;21.10;;;9.15;;
34657;SDS011;20865;43.312;27.152;2023-11-21T07:34:51;15.93;;;6.15;;
34657;SDS011;20865;43.312;27.152;2023-11-21T07:37:18;12.33;;;6.33;;
34657;SDS011;20865;43.312;27.152;2023-11-21T07:39:46;13.22;;;6.35;;
34657;SDS011;20865;43.312;27.152;2023-11-21T07:42:13;16.97;;;9.10;;
34657;SDS011;20865;43.312;27.152;2023-11-21T07:44:42;26.10;;;11.40;;
34657;SDS011;20865;43.312;27.152;2023-11-21T07:47:11;18.45;;;9.50;;
34657;SDS011;20865;43.312;27.152;2023-11-21T07:49:39;31.30;;;14.53;;
34657;SDS011;20865;43.312;27.152;2023-11-21T07:52:08;27.73;;;13.35;;
34657;SDS011;20865;43.312;27.152;2023-11-21T07:54:36;24.37;;;11.55;;
34657;SDS011;20865;43.312;27.152;2023-11-21T07:57:04;32.42;;;16.15;;
34657;SDS011;20865;43.312;27.152;2023-11-21T07:59:33;13.55;;;6.80;;
34657;SDS011;20865;43.312;27.152;2023-11-21T08:02:00;15.50;;;5.87;;
34657;SDS011;20865;43.312;27.152;2023-11-21T08:04:28;23.85;;;10.85;;
34657;SDS011;20865;43.312;27.152;2023-11-21T08:06:57;13.88;;;6.17;;
34657;SDS011;20865;43.312;27.152;2023-11-21T08:09:25;22.02;;;10.95;;
34657;SDS011;20865;43.312;27.152;2023-11-21T08:11:53;21.90;;;10.05;;
34657;SDS011;20865;43.312;27.152;2023-11-21T08:14:20;19.67;;;8.53;;
34657;SDS011;20865;43.312;27.152;2023-11-21T08:16:50;10.00;;;5.70;;
34657;SDS011;20865;43.312;27.152;2023-11-21T08:19:18;10.93;;;5.50;;
34657;SDS011;20865;43.312;27.152;2023-11-21T08:21:46;14.35;;;5.35;;
34657;SDS011;20865;43.312;27.152;2023-11-21T08:24:14;14.60;;;6.08;;
34657;SDS011;20865;43.312;27.152;2023-11-21T08:26:41;14.43;;;7.20;;
34657;SDS011;20865;43.312;27.152;2023-11-21T08:29:09;56.95;;;24.15;;
34657;SDS011;20865;43.312;27.152;2023-11-21T08:31:37;13.80;;;7.42;;
34657;SDS011;20865;43.312;27.152;2023-11-21T08:34:05;16.95;;;7.92;;
34657;SDS011;20865;43.312;27.152;2023-11-21T08:36:32;13.65;;;7.30;;
34657;SDS011;20865;43.312;27.152;2023-11-21T08:39:00;12.70;;;6.90;;
34657;SDS011;20865;43.312;27.152;2023-11-21T08:41:33;17.35;;;7.00;;
34657;SDS011;20865;43.312;27.152;2023-11-21T08:44:02;14.30;;;7.55;;
34657;SDS011;20865;43.312;27.152;2023-11-21T08:46:33;31.65;;;14.50;;
34657;SDS011;20865;43.312;27.152;2023-11-21T08:49:02;24.37;;;10.75;;
34657;SDS011;20865;43.312;27.152;2023-11-21T08:51:30;27.55;;;10.70;;
34657;SDS011;20865;43.312;27.152;2023-11-21T08:53:58;12.20;;;6.85;;
34657;SDS011;20865;43.312;27.152;2023-11-21T08:56:27;15.80;;;7.85;;
34657;SDS011;20865;43.312;27.152;2023-11-21T08:58:55;15.83;;;7.78;;
34657;SDS011;20865;43.312;27.152;2023-11-21T09:01:22;18.25;;;7.12;;
34657;SDS011;20865;43.312;27.152;2023-11-21T09:03:50;149.60;;;50.65;;
34657;SDS011;20865;43.312;27.152;2023-11-21T09:06:19;77.72;;;27.20;;
34657;SDS011;20865;43.312;27.152;2023-11-21T09:08:46;46.05;;;21.93;;
34657;SDS011;20865;43.312;27.152;2023-11-21T09:11:14;17.17;;;8.85;;
34657;SDS011;20865;43.312;27.152;2023-11-21T09:13:42;21.60;;;8.63;;
34657;SDS011;20865;43.312;27.152;2023-11-21T09:16:10;15.35;;;6.58;;
34657;SDS011;20865;43.312;27.152;2023-11-21T09:18:37;12.58;;;4.72;;
34657;SDS011;20865;43.312;27.152;2023-11-21T09:21:05;22.42;;;8.55;;
34657;SDS011;20865;43.312;27.152;2023-11-21T09:23:34;30.15;;;12.47;;
34657;SDS011;20865;43.312;27.152;2023-11-21T09:26:02;27.07;;;9.63;;
34657;SDS011;20865;43.312;27.152;2023-11-21T09:28:31;22.32;;;9.88;;
34657;SDS011;20865;43.312;27.152;2023-11-21T09:30:58;10.90;;;5.42;;
34657;SDS011;20865;43.312;27.152;2023-11-21T09:33:28;17.82;;;5.75;;
34657;SDS011;20865;43.312;27.152;2023-11-21T09:35:56;15.00;;;6.45;;
34657;SDS011;20865;43.312;27.152;2023-11-21T09:38:23;16.52;;;6.60;;
34657;SDS011;20865;43.312;27.152;2023-11-21T09:40:51;28.75;;;15.65;;
34657;SDS011;20865;43.312;27.152;2023-11-21T09:43:20;31.57;;;17.07;;
34657;SDS011;20865;43.312;27.152;2023-11-21T09:45:51;29.70;;;14.38;;
34657;SDS011;20865;43.312;27.152;2023-11-21T09:48:19;25.20;;;12.03;;
34657;SDS011;20865;43.312;27.152;2023-11-21T09:50:47;20.52;;;9.30;;
34657;SDS011;20865;43.312;27.152;2023-11-21T09:55:54;19.40;;;8.93;;
34657;SDS011;20865;43.312;27.152;2023-11-21T09:58:19;17.07;;;7.55;;
34657;SDS011;20865;43.312;27.152;2023-11-21T10:00:49;16.93;;;7.78;;
34657;SDS011;20865;43.312;27.152;2023-11-21T10:03:19;19.52;;;8.68;;
34657;SDS011;20865;43.312;27.152;2023-11-21T10:05:47;14.20;;;7.03;;
34657;SDS011;20865;43.312;27.152;2023-11-21T10:08:18;17.15;;;7.00;;
34657;SDS011;20865;43.312;27.152;2023-11-21T10:10:49;12.50;;;6.25;;
34657;SDS011;20865;43.312;27.152;2023-11-21T10:13:20;21.50;;;9.20;;
34657;SDS011;20865;43.312;27.152;2023-11-21T10:15:49;21.45;;;10.03;;
34657;SDS011;20865;43.312;27.152;2023-11-21T10:18:18;34.45;;;14.55;;
34657;SDS011;20865;43.312;27.152;2023-11-21T10:20:48;58.20;;;25.97;;
34657;SDS011;20865;43.312;27.152;2023-11-21T10:23:19;39.27;;;15.23;;
34657;SDS011;20865;43.312;27.152;2023-11-21T10:25:48;21.65;;;9.58;;
34657;SDS011;20865;43.312;27.152;2023-11-21T10:28:17;21.20;;;8.55;;
34657;SDS011;20865;43.312;27.152;2023-11-21T10:30:46;38.00;;;14.35;;
34657;SDS011;20865;43.312;27.152;2023-11-21T10:33:14;23.65;;;10.90;;
34657;SDS011;20865;43.312;27.152;2023-11-21T10:35:42;65.67;;;28.65;;
34657;SDS011;20865;43.312;27.152;2023-11-21T10:38:15;19.62;;;9.83;;
34657;SDS011;20865;43.312;27.152;2023-11-21T10:40:44;19.65;;;8.78;;
34657;SDS011;20865;43.312;27.152;2023-11-21T10:43:12;18.65;;;7.60;;
34657;SDS011;20865;43.312;27.152;2023-11-21T10:45:42;15.00;;;6.33;;
34657;SDS011;20865;43.312;27.152;2023-11-21T10:48:10;13.90;;;6.90;;
34657;SDS011;20865;43.312;27.152;2023-11-21T10:50:43;12.75;;;6.75;;
34657;SDS011;20865;43.312;27.152;2023-11-21T10:53:12;18.02;;;7.00;;
34657;SDS011;20865;43.312;27.152;2023-11-21T10:55:40;16.62;;;7.62;;
34657;SDS011;20865;43.312;27.152;2023-11-21T10:58:10;16.32;;;6.53;;
34657;SDS011;20865;43.312;27.152;2023-11-21T11:00:40;14.28;;;7.53;;
34657;SDS011;20865;43.312;27.152;2023-11-21T11:03:09;21.85;;;7.92;;
34657;SDS011;20865;43.312;27.152;2023-11-21T11:05:40;20.30;;;8.98;;
34657;SDS011;20865;43.312;27.152;2023-11-21T11:08:11;22.52;;;9.48;;
34657;SDS011;20865;43.312;27.152;2023-11-21T11:10:43;15.28;;;8.00;;
34657;SDS011;20865;43.312;27.152;2023-11-21T11:13:13;18.20;;;6.85;;
34657;SDS011;20865;43.312;27.152;2023-11-21T11:15:41;23.55;;;8.60;;
34657;SDS011;20865;43.312;27.152;2023-11-21T11:18:11;27.35;;;9.98;;
34657;SDS011;20865;43.312;27.152;2023-11-21T11:20:41;27.58;;;6.62;;
34657;SDS011;20865;43.312;27.152;2023-11-21T11:23:41;16.80;;;6.85;;
34657;SDS011;20865;43.312;27.152;2023-11-21T11:26:06;11.88;;;7.58;;
34657;SDS011;20865;43.312;27.152;2023-11-21T11:28:38;16.42;;;8.35;;
34657;SDS011;20865;43.312;27.152;2023-11-21T11:31:13;61.68;;;21.27;;
34657;SDS011;20865;43.312;27.152;2023-11-21T11:36:59;17.20;;;8.88;;
34657;SDS011;20865;43.312;27.152;2023-11-21T11:39:29;17.67;;;10.35;;
34657;SDS011;20865;43.312;27.152;2023-11-21T11:42:06;14.73;;;7.35;;
34657;SDS011;20865;43.312;27.152;2023-11-21T11:47:16;21.35;;;10.30;;
34657;SDS011;20865;43.312;27.152;2023-11-21T11:52:34;43.00;;;19.95;;
34657;SDS011;20865;43.312;27.152;2023-11-21T11:55:04;36.33;;;22.10;;
34657;SDS011;20865;43.312;27.152;2023-11-21T11:57:34;24.15;;;11.12;;
34657;SDS011;20865;43.312;27.152;2023-11-21T12:00:14;18.92;;;7.78;;
34657;SDS011;20865;43.312;27.152;2023-11-21T12:02:47;13.15;;;6.15;;
34657;SDS011;20865;43.312;27.152;2023-11-21T12:05:17;16.95;;;9.13;;
34657;SDS011;20865;43.312;27.152;2023-11-21T12:07:55;21.25;;;9.80;;
34657;SDS011;20865;43.312;27.152;2023-11-21T12:12:54;20.30;;;8.40;;
34657;SDS011;20865;43.312;27.152;2023-11-21T12:15:24;19.30;;;10.60;;
34657;SDS011;20865;43.312;27.152;2023-11-21T12:17:54;30.70;;;12.55;;
34657;SDS011;20865;43.312;27.152;2023-11-21T12:20:22;23.32;;;10.30;;
34657;SDS011;20865;43.312;27.152;2023-11-21T12:22:52;14.40;;;6.37;;
34657;SDS011;20865;43.312;27.152;2023-11-21T12:25:24;24.77;;;7.45;;
34657;SDS011;20865;43.312;27.152;2023-11-21T12:30:25;17.05;;;7.15;;
34657;SDS011;20865;43.312;27.152;2023-11-21T12:32:56;15.23;;;8.15;;
34657;SDS011;20865;43.312;27.152;2023-11-21T12:35:31;18.92;;;8.50;;
34657;SDS011;20865;43.312;27.152;2023-11-21T12:37:56;14.60;;;6.28;;
34657;SDS011;20865;43.312;27.152;2023-11-21T12:40:24;13.28;;;7.67;;
34657;SDS011;20865;43.312;27.152;2023-11-21T12:42:54;15.70;;;8.58;;
34657;SDS011;20865;43.312;27.152;2023-11-21T12:45:27;17.75;;;10.53;;
34657;SDS011;20865;43.312;27.152;2023-11-21T12:48:03;26.57;;;12.60;;
34657;SDS011;20865;43.312;27.152;2023-11-21T12:50:37;29.52;;;14.25;;
34657;SDS011;20865;43.312;27.152;2023-11-21T12:53:07;28.42;;;14.68;;
34657;SDS011;20865;43.312;27.152;2023-11-21T12:55:38;25.95;;;13.78;;
34657;SDS011;20865;43.312;27.152;2023-11-21T12:58:08;67.08;;;36.77;;
34657;SDS011;20865;43.312;27.152;2023-11-21T13:00:50;24.52;;;13.00;;
34657;SDS011;20865;43.312;27.152;2023-11-21T13:03:14;72.92;;;37.33;;
34657;SDS011;20865;43.312;27.152;2023-11-21T13:05:45;70.03;;;36.35;;
34657;SDS011;20865;43.312;27.152;2023-11-21T13:08:19;85.25;;;43.95;;
34657;SDS011;20865;43.312;27.152;2023-11-21T13:10:57;255.30;;;118.30;;
34657;SDS011;20865;43.312;27.152;2023-11-21T13:13:22;101.50;;;38.02;;
34657;SDS011;20865;43.312;27.152;2023-11-21T13:15:54;101.30;;;32.83;;
34657;SDS011;20865;43.312;27.152;2023-11-21T13:18:23;95.17;;;34.92;;
34657;SDS011;20865;43.312;27.152;2023-11-21T13:20:57;87.15;;;31.97;;
34657;SDS011;20865;43.312;27.152;2023-11-21T13:23:22;44.70;;;17.15;;
34657;SDS011;20865;43.312;27.152;2023-11-21T13:25:50;70.87;;;31.93;;
34657;SDS011;20865;43.312;27.152;2023-11-21T13:28:18;81.20;;;28.55;;
34657;SDS011;20865;43.312;27.152;2023-11-21T13:30:47;88.40;;;35.33;;
34657;SDS011;20865;43.312;27.152;2023-11-21T13:33:16;93.30;;;34.53;;
34657;SDS011;20865;43.312;27.152;2023-11-21T13:35:46;67.50;;;25.02;;
34657;SDS011;20865;43.312;27.152;2023-11-21T13:38:16;60.28;;;22.52;;
34657;SDS011;20865;43.312;27.152;2023-11-21T13:40:47;57.75;;;22.48;;
34657;SDS011;20865;43.312;27.152;2023-11-21T13:43:17;20.75;;;9.83;;
34657;SDS011;20865;43.312;27.152;2023-11-21T13:45:48;17.20;;;7.83;;
34657;SDS011;20865;43.312;27.152;2023-11-21T13:48:18;19.07;;;8.40;;
34657;SDS011;20865;43.312;27.152;2023-11-21T13:50:47;22.48;;;9.83;;
34657;SDS011;20865;43.312;27.152;2023-11-21T13:53:16;22.82;;;9.68;;
34657;SDS011;20865;43.312;27.152;2023-11-21T13:55:45;22.67;;;8.98;;
34657;SDS011;20865;43.312;27.152;2023-11-21T13:58:15;28.38;;;12.98;;
34657;SDS011;20865;43.312;27.152;2023-11-21T14:00:47;16.67;;;9.20;;
34657;SDS011;20865;43.312;27.152;2023-11-21T14:03:17;19.32;;;8.80;;
34657;SDS011;20865;43.312;27.152;2023-11-21T14:05:48;24.72;;;9.73;;
34657;SDS011;20865;43.312;27.152;2023-11-21T14:08:19;48.13;;;16.93;;
34657;SDS011;20865;43.312;27.152;2023-11-21T14:10:49;55.45;;;21.15;;
34657;SDS011;20865;43.312;27.152;2023-11-21T14:13:18;58.48;;;20.02;;
34657;SDS011;20865;43.312;27.152;2023-11-21T14:15:48;63.78;;;22.55;;
34657;SDS011;20865;43.312;27.152;2023-11-21T14:18:18;63.05;;;21.10;;
34657;SDS011;20865;43.312;27.152;2023-11-21T14:20:48;103.85;;;24.80;;
34657;SDS011;20865;43.312;27.152;2023-11-21T14:23:16;112.85;;;26.50;;
34657;SDS011;20865;43.312;27.152;2023-11-21T14:25:44;98.25;;;30.57;;
34657;SDS011;20865;43.312;27.152;2023-11-21T14:28:13;168.55;;;66.53;;
34657;SDS011;20865;43.312;27.152;2023-11-21T14:30:41;112.15;;;36.98;;
34657;SDS011;20865;43.312;27.152;2023-11-21T14:33:08;82.92;;;27.40;;
34657;SDS011;20865;43.312;27.152;2023-11-21T14:35:37;57.03;;;21.93;;
34657;SDS011;20865;43.312;27.152;2023-11-21T14:38:04;53.85;;;21.30;;
34657;SDS011;20865;43.312;27.152;2023-11-21T14:40:32;87.50;;;33.15;;
34657;SDS011;20865;43.312;27.152;2023-11-21T14:43:04;56.33;;;22.48;;
34657;SDS011;20865;43.312;27.152;2023-11-21T14:45:32;40.63;;;18.75;;